sensor_id;sensor_type;location;lat;lon;timestamp;P1;durP1;ratioP1;P2;durP2;ratioP2
5845;SDS011;2949;50.778;7.094;2023-04-29T00:00:00;10.03;;;8.60;;
5845;SDS011;2949;50.778;7.094;2023-04-29T00:02:26;13.47;;;9.83;;
5845;SDS011;2949;50.778;7.094;2023-04-29T00:04:52;12.70;;;9.13;;
5845;SDS011;2949;50.778;7.094;2023-04-29T00:07:18;12.37;;;7.40;;
5845;SDS011;2949;50.778;7.094;2023-04-29T00:09:46;13.87;;;8.57;;
5845;SDS011;2949;50.778;7.094;2023-04-29T00:12:11;12.80;;;8.43;;
5845;SDS011;2949;50.778;7.094;2023-04-29T00:14:37;11.23;;;9.53;;
5845;SDS011;2949;50.778;7.094;2023-04-29T00:17:02;14.20;;;9.90;;
5845;SDS011;2949;50.778;7.094;2023-04-29T00:19:28;14.40;;;10.03;;
5845;SDS011;2949;50.778;7.094;2023-04-29T00:21:54;13.90;;;10.53;;
5845;SDS011;2949;50.778;7.094;2023-04-29T00:24:19;21.20;;;10.70;;
5845;SDS011;2949;50.778;7.094;2023-04-29T00:26:45;19.00;;;11.60;;
5845;SDS011;2949;50.778;7.094;2023-04-29T00:29:11;18.27;;;11.97;;
5845;SDS011;2949;50.778;7.094;2023-04-29T00:31:36;17.17;;;11.00;;
5845;SDS011;2949;50.778;7.094;2023-04-29T00:34:02;16.80;;;11.67;;
5845;SDS011;2949;50.778;7.094;2023-04-29T00:36:27;17.40;;;10.80;;
5845;SDS011;2949;50.778;7.094;2023-04-29T00:38:53;18.30;;;11.53;;
5845;SDS011;2949;50.778;7.094;2023-04-29T00:41:19;23.10;;;12.47;;
5845;SDS011;2949;50.778;7.094;2023-04-29T00:43:45;18.87;;;11.87;;
5845;SDS011;2949;50.778;7.094;2023-04-29T00:46:10;19.90;;;12.30;;
5845;SDS011;2949;50.778;7.094;2023-04-29T00:48:36;19.50;;;11.93;;
5845;SDS011;2949;50.778;7.094;2023-04-29T00:51:02;17.60;;;12.00;;
5845;SDS011;2949;50.778;7.094;2023-04-29T00:53:29;24.47;;;13.80;;
5845;SDS011;2949;50.778;7.094;2023-04-29T00:55:55;32.73;;;13.03;;
5845;SDS011;2949;50.778;7.094;2023-04-29T00:58:20;22.23;;;13.00;;
5845;SDS011;2949;50.778;7.094;2023-04-29T01:00:47;18.00;;;12.27;;
5845;SDS011;2949;50.778;7.094;2023-04-29T01:03:13;22.43;;;12.47;;
5845;SDS011;2949;50.778;7.094;2023-04-29T01:05:40;25.73;;;14.87;;
5845;SDS011;2949;50.778;7.094;2023-04-29T01:10:44;28.03;;;15.33;;
5845;SDS011;2949;50.778;7.094;2023-04-29T01:13:19;22.93;;;13.80;;
5845;SDS011;2949;50.778;7.094;2023-04-29T01:16:00;21.93;;;14.00;;
5845;SDS011;2949;50.778;7.094;2023-04-29T01:18:35;21.97;;;13.77;;
5845;SDS011;2949;50.778;7.094;2023-04-29T01:21:05;24.27;;;12.27;;
5845;SDS011;2949;50.778;7.094;2023-04-29T01:23:30;27.90;;;14.40;;
5845;SDS011;2949;50.778;7.094;2023-04-29T01:25:56;25.43;;;14.80;;
5845;SDS011;2949;50.778;7.094;2023-04-29T01:31:05;23.30;;;13.80;;
5845;SDS011;2949;50.778;7.094;2023-04-29T01:36:26;20.40;;;10.47;;
5845;SDS011;2949;50.778;7.094;2023-04-29T01:39:08;18.97;;;10.77;;
5845;SDS011;2949;50.778;7.094;2023-04-29T01:41:52;17.63;;;7.70;;
5845;SDS011;2949;50.778;7.094;2023-04-29T01:44:26;13.33;;;8.03;;
5845;SDS011;2949;50.778;7.094;2023-04-29T01:46:54;16.30;;;8.67;;
5845;SDS011;2949;50.778;7.094;2023-04-29T01:49:20;11.60;;;7.97;;
5845;SDS011;2949;50.778;7.094;2023-04-29T01:51:59;14.30;;;8.47;;
5845;SDS011;2949;50.778;7.094;2023-04-29T01:54:25;15.57;;;9.40;;
5845;SDS011;2949;50.778;7.094;2023-04-29T01:56:51;17.13;;;9.30;;
5845;SDS011;2949;50.778;7.094;2023-04-29T01:59:16;15.70;;;9.07;;
5845;SDS011;2949;50.778;7.094;2023-04-29T02:01:42;17.00;;;9.40;;
5845;SDS011;2949;50.778;7.094;2023-04-29T02:04:07;20.07;;;11.40;;
5845;SDS011;2949;50.778;7.094;2023-04-29T02:06:33;20.33;;;10.13;;
5845;SDS011;2949;50.778;7.094;2023-04-29T02:08:58;20.67;;;11.67;;
5845;SDS011;2949;50.778;7.094;2023-04-29T02:11:24;18.33;;;11.40;;
5845;SDS011;2949;50.778;7.094;2023-04-29T02:13:50;21.43;;;11.93;;
5845;SDS011;2949;50.778;7.094;2023-04-29T02:16:15;22.43;;;12.50;;
5845;SDS011;2949;50.778;7.094;2023-04-29T02:18:41;23.13;;;13.63;;
5845;SDS011;2949;50.778;7.094;2023-04-29T02:21:07;27.90;;;13.90;;
5845;SDS011;2949;50.778;7.094;2023-04-29T02:23:33;31.23;;;16.00;;
5845;SDS011;2949;50.778;7.094;2023-04-29T02:26:00;27.40;;;15.07;;
5845;SDS011;2949;50.778;7.094;2023-04-29T02:28:26;34.13;;;17.07;;
5845;SDS011;2949;50.778;7.094;2023-04-29T02:30:51;28.00;;;15.80;;
5845;SDS011;2949;50.778;7.094;2023-04-29T02:33:17;32.90;;;17.20;;
5845;SDS011;2949;50.778;7.094;2023-04-29T02:35:43;34.33;;;17.80;;
5845;SDS011;2949;50.778;7.094;2023-04-29T02:38:09;35.40;;;18.40;;
5845;SDS011;2949;50.778;7.094;2023-04-29T02:40:45;31.93;;;16.67;;
5845;SDS011;2949;50.778;7.094;2023-04-29T02:43:11;36.70;;;18.83;;
5845;SDS011;2949;50.778;7.094;2023-04-29T02:45:37;36.47;;;18.80;;
5845;SDS011;2949;50.778;7.094;2023-04-29T02:48:03;37.17;;;18.87;;
5845;SDS011;2949;50.778;7.094;2023-04-29T02:50:29;37.43;;;18.00;;
5845;SDS011;2949;50.778;7.094;2023-04-29T02:52:55;34.90;;;18.50;;
5845;SDS011;2949;50.778;7.094;2023-04-29T02:55:21;36.40;;;19.53;;
5845;SDS011;2949;50.778;7.094;2023-04-29T02:57:47;37.50;;;18.77;;
5845;SDS011;2949;50.778;7.094;2023-04-29T03:00:12;43.90;;;19.77;;
5845;SDS011;2949;50.778;7.094;2023-04-29T03:02:38;34.60;;;19.67;;
5845;SDS011;2949;50.778;7.094;2023-04-29T03:05:04;40.50;;;20.43;;
5845;SDS011;2949;50.778;7.094;2023-04-29T03:07:30;40.80;;;20.03;;
5845;SDS011;2949;50.778;7.094;2023-04-29T03:09:56;35.30;;;20.17;;
5845;SDS011;2949;50.778;7.094;2023-04-29T03:12:22;41.30;;;20.87;;
5845;SDS011;2949;50.778;7.094;2023-04-29T03:14:47;44.30;;;20.40;;
5845;SDS011;2949;50.778;7.094;2023-04-29T03:17:13;37.80;;;20.10;;
5845;SDS011;2949;50.778;7.094;2023-04-29T03:19:39;44.53;;;22.17;;
5845;SDS011;2949;50.778;7.094;2023-04-29T03:22:05;44.73;;;22.97;;
5845;SDS011;2949;50.778;7.094;2023-04-29T03:24:35;42.23;;;23.40;;
5845;SDS011;2949;50.778;7.094;2023-04-29T03:27:01;48.90;;;24.17;;
5845;SDS011;2949;50.778;7.094;2023-04-29T03:29:26;52.00;;;23.27;;
5845;SDS011;2949;50.778;7.094;2023-04-29T03:31:52;46.37;;;23.80;;
5845;SDS011;2949;50.778;7.094;2023-04-29T03:34:18;44.73;;;23.83;;
5845;SDS011;2949;50.778;7.094;2023-04-29T03:36:44;44.73;;;24.10;;
5845;SDS011;2949;50.778;7.094;2023-04-29T03:39:09;46.40;;;23.50;;
5845;SDS011;2949;50.778;7.094;2023-04-29T03:41:36;50.57;;;24.70;;
5845;SDS011;2949;50.778;7.094;2023-04-29T03:44:02;45.77;;;24.23;;
5845;SDS011;2949;50.778;7.094;2023-04-29T03:46:28;55.00;;;26.13;;
5845;SDS011;2949;50.778;7.094;2023-04-29T03:48:53;50.13;;;26.53;;
5845;SDS011;2949;50.778;7.094;2023-04-29T03:51:21;64.67;;;28.67;;
5845;SDS011;2949;50.778;7.094;2023-04-29T03:53:47;65.27;;;28.57;;
5845;SDS011;2949;50.778;7.094;2023-04-29T03:56:13;59.17;;;29.10;;
5845;SDS011;2949;50.778;7.094;2023-04-29T03:58:38;62.00;;;26.73;;
5845;SDS011;2949;50.778;7.094;2023-04-29T04:01:04;70.33;;;29.53;;
5845;SDS011;2949;50.778;7.094;2023-04-29T04:03:30;60.10;;;28.40;;
5845;SDS011;2949;50.778;7.094;2023-04-29T04:05:56;63.43;;;30.70;;
5845;SDS011;2949;50.778;7.094;2023-04-29T04:08:22;66.30;;;30.50;;
5845;SDS011;2949;50.778;7.094;2023-04-29T04:10:47;70.03;;;33.00;;
5845;SDS011;2949;50.778;7.094;2023-04-29T04:13:13;76.20;;;31.73;;
5845;SDS011;2949;50.778;7.094;2023-04-29T04:15:38;79.07;;;35.17;;
5845;SDS011;2949;50.778;7.094;2023-04-29T04:18:04;78.13;;;33.77;;
5845;SDS011;2949;50.778;7.094;2023-04-29T04:20:30;86.20;;;36.17;;
5845;SDS011;2949;50.778;7.094;2023-04-29T04:22:56;88.50;;;35.93;;
5845;SDS011;2949;50.778;7.094;2023-04-29T04:25:21;83.30;;;34.20;;
5845;SDS011;2949;50.778;7.094;2023-04-29T04:27:47;96.87;;;38.83;;
5845;SDS011;2949;50.778;7.094;2023-04-29T04:30:12;93.47;;;35.77;;
5845;SDS011;2949;50.778;7.094;2023-04-29T04:32:38;97.50;;;38.20;;
5845;SDS011;2949;50.778;7.094;2023-04-29T04:35:04;98.70;;;37.90;;
5845;SDS011;2949;50.778;7.094;2023-04-29T04:37:31;106.50;;;42.00;;
5845;SDS011;2949;50.778;7.094;2023-04-29T04:39:56;111.33;;;41.63;;
5845;SDS011;2949;50.778;7.094;2023-04-29T04:42:22;103.10;;;40.63;;
5845;SDS011;2949;50.778;7.094;2023-04-29T04:44:47;117.93;;;42.17;;
5845;SDS011;2949;50.778;7.094;2023-04-29T04:47:13;111.87;;;42.70;;
5845;SDS011;2949;50.778;7.094;2023-04-29T04:49:38;124.60;;;39.10;;
5845;SDS011;2949;50.778;7.094;2023-04-29T04:52:04;95.80;;;34.90;;
5845;SDS011;2949;50.778;7.094;2023-04-29T04:54:30;103.20;;;36.03;;
5845;SDS011;2949;50.778;7.094;2023-04-29T04:56:55;128.43;;;36.63;;
5845;SDS011;2949;50.778;7.094;2023-04-29T04:59:21;117.70;;;35.17;;
5845;SDS011;2949;50.778;7.094;2023-04-29T05:01:46;110.80;;;33.73;;
5845;SDS011;2949;50.778;7.094;2023-04-29T05:04:12;113.40;;;33.47;;
5845;SDS011;2949;50.778;7.094;2023-04-29T05:06:39;101.47;;;33.27;;
5845;SDS011;2949;50.778;7.094;2023-04-29T05:09:05;108.90;;;34.37;;
5845;SDS011;2949;50.778;7.094;2023-04-29T05:11:30;107.80;;;31.70;;
5845;SDS011;2949;50.778;7.094;2023-04-29T05:13:56;106.97;;;33.00;;
5845;SDS011;2949;50.778;7.094;2023-04-29T05:16:21;112.90;;;32.13;;
5845;SDS011;2949;50.778;7.094;2023-04-29T05:18:47;105.23;;;32.50;;
5845;SDS011;2949;50.778;7.094;2023-04-29T05:21:12;103.50;;;35.07;;
5845;SDS011;2949;50.778;7.094;2023-04-29T05:23:38;109.23;;;34.73;;
5845;SDS011;2949;50.778;7.094;2023-04-29T05:26:03;111.37;;;32.50;;
5845;SDS011;2949;50.778;7.094;2023-04-29T05:28:29;93.40;;;35.00;;
5845;SDS011;2949;50.778;7.094;2023-04-29T05:30:54;106.23;;;33.53;;
5845;SDS011;2949;50.778;7.094;2023-04-29T05:33:20;97.67;;;33.43;;
5845;SDS011;2949;50.778;7.094;2023-04-29T05:35:46;89.17;;;30.40;;
5845;SDS011;2949;50.778;7.094;2023-04-29T05:38:11;95.40;;;34.43;;
5845;SDS011;2949;50.778;7.094;2023-04-29T05:40:37;85.50;;;30.40;;
5845;SDS011;2949;50.778;7.094;2023-04-29T05:43:02;78.80;;;30.13;;
5845;SDS011;2949;50.778;7.094;2023-04-29T05:45:28;87.40;;;29.93;;
5845;SDS011;2949;50.778;7.094;2023-04-29T05:47:53;78.70;;;27.40;;
5845;SDS011;2949;50.778;7.094;2023-04-29T05:50:19;96.47;;;29.30;;
5845;SDS011;2949;50.778;7.094;2023-04-29T05:52:45;80.10;;;31.03;;
5845;SDS011;2949;50.778;7.094;2023-04-29T05:55:10;76.13;;;28.50;;
5845;SDS011;2949;50.778;7.094;2023-04-29T05:57:36;72.00;;;28.67;;
5845;SDS011;2949;50.778;7.094;2023-04-29T06:00:01;65.63;;;26.90;;
5845;SDS011;2949;50.778;7.094;2023-04-29T06:02:27;56.67;;;23.70;;
5845;SDS011;2949;50.778;7.094;2023-04-29T06:04:53;55.83;;;24.27;;
5845;SDS011;2949;50.778;7.094;2023-04-29T06:07:18;58.10;;;24.30;;
5845;SDS011;2949;50.778;7.094;2023-04-29T06:09:44;48.03;;;21.33;;
5845;SDS011;2949;50.778;7.094;2023-04-29T06:12:10;50.10;;;20.77;;
5845;SDS011;2949;50.778;7.094;2023-04-29T06:14:36;37.00;;;18.63;;
5845;SDS011;2949;50.778;7.094;2023-04-29T06:17:01;38.90;;;19.33;;
5845;SDS011;2949;50.778;7.094;2023-04-29T06:19:27;39.67;;;19.17;;
5845;SDS011;2949;50.778;7.094;2023-04-29T06:21:53;47.10;;;20.07;;
5845;SDS011;2949;50.778;7.094;2023-04-29T06:24:19;40.27;;;19.53;;
5845;SDS011;2949;50.778;7.094;2023-04-29T06:26:44;36.40;;;19.13;;
5845;SDS011;2949;50.778;7.094;2023-04-29T06:29:10;39.97;;;19.00;;
5845;SDS011;2949;50.778;7.094;2023-04-29T06:31:36;36.23;;;16.73;;
5845;SDS011;2949;50.778;7.094;2023-04-29T06:34:02;35.43;;;16.10;;
5845;SDS011;2949;50.778;7.094;2023-04-29T06:36:27;29.80;;;15.00;;
5845;SDS011;2949;50.778;7.094;2023-04-29T06:38:53;24.00;;;12.90;;
5845;SDS011;2949;50.778;7.094;2023-04-29T06:41:19;27.43;;;14.47;;
5845;SDS011;2949;50.778;7.094;2023-04-29T06:43:44;29.53;;;16.03;;
5845;SDS011;2949;50.778;7.094;2023-04-29T06:46:10;30.07;;;16.47;;
5845;SDS011;2949;50.778;7.094;2023-04-29T06:48:37;33.00;;;17.57;;
5845;SDS011;2949;50.778;7.094;2023-04-29T06:51:02;30.60;;;17.33;;
5845;SDS011;2949;50.778;7.094;2023-04-29T06:53:28;26.60;;;15.40;;
5845;SDS011;2949;50.778;7.094;2023-04-29T06:55:54;28.57;;;15.30;;
5845;SDS011;2949;50.778;7.094;2023-04-29T06:58:19;29.30;;;14.67;;
5845;SDS011;2949;50.778;7.094;2023-04-29T07:00:46;34.13;;;17.70;;
5845;SDS011;2949;50.778;7.094;2023-04-29T07:03:13;30.27;;;15.57;;
5845;SDS011;2949;50.778;7.094;2023-04-29T07:05:38;26.70;;;15.20;;
5845;SDS011;2949;50.778;7.094;2023-04-29T07:08:06;26.30;;;14.20;;
5845;SDS011;2949;50.778;7.094;2023-04-29T07:10:32;25.63;;;13.47;;
5845;SDS011;2949;50.778;7.094;2023-04-29T07:12:58;23.93;;;13.30;;
5845;SDS011;2949;50.778;7.094;2023-04-29T07:15:24;27.60;;;14.20;;
5845;SDS011;2949;50.778;7.094;2023-04-29T07:17:54;27.00;;;14.00;;
5845;SDS011;2949;50.778;7.094;2023-04-29T07:20:20;29.40;;;14.50;;
5845;SDS011;2949;50.778;7.094;2023-04-29T07:22:46;24.77;;;13.67;;
5845;SDS011;2949;50.778;7.094;2023-04-29T07:25:11;25.23;;;13.47;;
5845;SDS011;2949;50.778;7.094;2023-04-29T07:27:38;24.80;;;14.30;;
5845;SDS011;2949;50.778;7.094;2023-04-29T07:30:04;26.57;;;14.53;;
5845;SDS011;2949;50.778;7.094;2023-04-29T07:32:30;29.50;;;14.23;;
5845;SDS011;2949;50.778;7.094;2023-04-29T07:34:56;22.77;;;13.57;;
5845;SDS011;2949;50.778;7.094;2023-04-29T07:37:23;25.13;;;14.30;;
5845;SDS011;2949;50.778;7.094;2023-04-29T07:39:49;24.30;;;14.13;;
5845;SDS011;2949;50.778;7.094;2023-04-29T07:42:15;21.00;;;11.63;;
5845;SDS011;2949;50.778;7.094;2023-04-29T07:44:40;23.90;;;12.67;;
5845;SDS011;2949;50.778;7.094;2023-04-29T07:47:06;26.10;;;13.00;;
5845;SDS011;2949;50.778;7.094;2023-04-29T07:49:31;20.30;;;12.10;;
5845;SDS011;2949;50.778;7.094;2023-04-29T07:51:57;28.13;;;14.40;;
5845;SDS011;2949;50.778;7.094;2023-04-29T07:54:22;21.83;;;12.50;;
5845;SDS011;2949;50.778;7.094;2023-04-29T07:56:48;29.10;;;14.60;;
5845;SDS011;2949;50.778;7.094;2023-04-29T07:59:14;23.97;;;12.97;;
5845;SDS011;2949;50.778;7.094;2023-04-29T08:01:40;25.57;;;13.60;;
5845;SDS011;2949;50.778;7.094;2023-04-29T08:04:06;19.60;;;11.20;;
5845;SDS011;2949;50.778;7.094;2023-04-29T08:06:32;20.10;;;11.73;;
5845;SDS011;2949;50.778;7.094;2023-04-29T08:08:58;19.40;;;11.47;;
5845;SDS011;2949;50.778;7.094;2023-04-29T08:11:25;20.07;;;12.07;;
5845;SDS011;2949;50.778;7.094;2023-04-29T08:13:52;25.73;;;13.30;;
5845;SDS011;2949;50.778;7.094;2023-04-29T08:16:18;23.93;;;14.00;;
5845;SDS011;2949;50.778;7.094;2023-04-29T08:18:45;20.33;;;12.93;;
5845;SDS011;2949;50.778;7.094;2023-04-29T08:21:11;20.53;;;13.20;;
5845;SDS011;2949;50.778;7.094;2023-04-29T08:23:36;20.17;;;12.57;;
5845;SDS011;2949;50.778;7.094;2023-04-29T08:26:03;25.00;;;12.47;;
5845;SDS011;2949;50.778;7.094;2023-04-29T08:28:28;24.30;;;12.27;;
5845;SDS011;2949;50.778;7.094;2023-04-29T08:30:54;18.33;;;12.17;;
5845;SDS011;2949;50.778;7.094;2023-04-29T08:33:20;19.50;;;12.50;;
5845;SDS011;2949;50.778;7.094;2023-04-29T08:35:56;26.87;;;13.90;;
5845;SDS011;2949;50.778;7.094;2023-04-29T08:38:22;21.17;;;13.07;;
5845;SDS011;2949;50.778;7.094;2023-04-29T08:40:48;24.73;;;12.40;;
5845;SDS011;2949;50.778;7.094;2023-04-29T08:43:13;20.43;;;12.83;;
5845;SDS011;2949;50.778;7.094;2023-04-29T08:45:40;23.30;;;12.97;;
5845;SDS011;2949;50.778;7.094;2023-04-29T08:48:07;21.17;;;13.70;;
5845;SDS011;2949;50.778;7.094;2023-04-29T08:50:36;20.80;;;13.90;;
5845;SDS011;2949;50.778;7.094;2023-04-29T08:53:05;25.97;;;14.70;;
5845;SDS011;2949;50.778;7.094;2023-04-29T08:55:36;24.30;;;15.10;;
5845;SDS011;2949;50.778;7.094;2023-04-29T08:58:14;24.73;;;13.40;;
5845;SDS011;2949;50.778;7.094;2023-04-29T09:00:40;21.50;;;14.10;;
5845;SDS011;2949;50.778;7.094;2023-04-29T09:03:17;24.40;;;15.70;;
5845;SDS011;2949;50.778;7.094;2023-04-29T09:05:56;23.97;;;15.43;;
5845;SDS011;2949;50.778;7.094;2023-04-29T09:08:24;23.90;;;14.30;;
5845;SDS011;2949;50.778;7.094;2023-04-29T09:10:50;24.50;;;13.20;;
5845;SDS011;2949;50.778;7.094;2023-04-29T09:13:27;23.77;;;14.00;;
5845;SDS011;2949;50.778;7.094;2023-04-29T09:15:53;27.73;;;14.07;;
5845;SDS011;2949;50.778;7.094;2023-04-29T09:21:21;23.03;;;13.37;;
5845;SDS011;2949;50.778;7.094;2023-04-29T09:23:56;22.90;;;13.77;;
5845;SDS011;2949;50.778;7.094;2023-04-29T09:26:27;25.27;;;15.00;;
5845;SDS011;2949;50.778;7.094;2023-04-29T09:29:12;29.43;;;14.13;;
5845;SDS011;2949;50.778;7.094;2023-04-29T09:31:40;28.13;;;14.50;;
5845;SDS011;2949;50.778;7.094;2023-04-29T09:34:06;25.73;;;13.77;;
5845;SDS011;2949;50.778;7.094;2023-04-29T09:39:19;22.97;;;14.13;;
5845;SDS011;2949;50.778;7.094;2023-04-29T09:44:25;24.27;;;14.13;;
5845;SDS011;2949;50.778;7.094;2023-04-29T09:47:28;23.83;;;13.57;;
5845;SDS011;2949;50.778;7.094;2023-04-29T09:49:53;20.20;;;11.97;;
5845;SDS011;2949;50.778;7.094;2023-04-29T09:52:39;22.73;;;13.97;;
5845;SDS011;2949;50.778;7.094;2023-04-29T09:55:08;25.67;;;15.53;;
5845;SDS011;2949;50.778;7.094;2023-04-29T09:57:40;25.50;;;15.30;;
5845;SDS011;2949;50.778;7.094;2023-04-29T10:00:06;26.17;;;14.70;;
5845;SDS011;2949;50.778;7.094;2023-04-29T10:02:32;28.00;;;14.90;;
5845;SDS011;2949;50.778;7.094;2023-04-29T10:04:58;25.03;;;15.63;;
5845;SDS011;2949;50.778;7.094;2023-04-29T10:07:24;31.03;;;16.77;;
5845;SDS011;2949;50.778;7.094;2023-04-29T10:09:51;29.67;;;14.33;;
5845;SDS011;2949;50.778;7.094;2023-04-29T10:12:18;28.80;;;15.53;;
5845;SDS011;2949;50.778;7.094;2023-04-29T10:14:56;28.07;;;15.00;;
5845;SDS011;2949;50.778;7.094;2023-04-29T10:17:51;26.63;;;14.83;;
5845;SDS011;2949;50.778;7.094;2023-04-29T10:20:20;29.00;;;16.97;;
5845;SDS011;2949;50.778;7.094;2023-04-29T10:22:49;27.10;;;14.80;;
5845;SDS011;2949;50.778;7.094;2023-04-29T10:25:16;27.07;;;16.10;;
5845;SDS011;2949;50.778;7.094;2023-04-29T10:27:46;32.77;;;17.70;;
5845;SDS011;2949;50.778;7.094;2023-04-29T10:30:16;30.07;;;17.90;;
5845;SDS011;2949;50.778;7.094;2023-04-29T10:32:43;30.00;;;16.10;;
5845;SDS011;2949;50.778;7.094;2023-04-29T10:35:10;24.63;;;14.60;;
5845;SDS011;2949;50.778;7.094;2023-04-29T10:37:37;28.73;;;17.30;;
5845;SDS011;2949;50.778;7.094;2023-04-29T10:40:09;28.27;;;15.60;;
5845;SDS011;2949;50.778;7.094;2023-04-29T10:42:36;27.60;;;17.87;;
5845;SDS011;2949;50.778;7.094;2023-04-29T10:45:29;28.10;;;18.40;;
5845;SDS011;2949;50.778;7.094;2023-04-29T10:53:22;31.10;;;17.80;;
5845;SDS011;2949;50.778;7.094;2023-04-29T10:55:55;31.37;;;17.40;;
5845;SDS011;2949;50.778;7.094;2023-04-29T10:58:36;34.90;;;18.43;;
5845;SDS011;2949;50.778;7.094;2023-04-29T11:01:07;32.67;;;19.57;;
5845;SDS011;2949;50.778;7.094;2023-04-29T11:24:59;40.53;;;24.53;;
5845;SDS011;2949;50.778;7.094;2023-04-29T11:27:30;52.90;;;28.47;;
5845;SDS011;2949;50.778;7.094;2023-04-29T11:30:01;50.13;;;25.10;;
5845;SDS011;2949;50.778;7.094;2023-04-29T11:32:30;46.70;;;25.10;;
5845;SDS011;2949;50.778;7.094;2023-04-29T11:35:17;40.20;;;25.37;;
5845;SDS011;2949;50.778;7.094;2023-04-29T11:37:44;41.67;;;22.80;;
5845;SDS011;2949;50.778;7.094;2023-04-29T11:40:11;37.40;;;20.90;;
5845;SDS011;2949;50.778;7.094;2023-04-29T11:42:42;38.60;;;20.93;;
5845;SDS011;2949;50.778;7.094;2023-04-29T11:45:09;34.60;;;20.93;;
5845;SDS011;2949;50.778;7.094;2023-04-29T11:47:36;32.30;;;19.87;;
5845;SDS011;2949;50.778;7.094;2023-04-29T11:50:02;39.73;;;20.87;;
5845;SDS011;2949;50.778;7.094;2023-04-29T11:52:29;31.80;;;19.30;;
5845;SDS011;2949;50.778;7.094;2023-04-29T11:54:56;33.77;;;18.00;;
5845;SDS011;2949;50.778;7.094;2023-04-29T11:57:24;30.87;;;18.27;;
5845;SDS011;2949;50.778;7.094;2023-04-29T11:59:49;33.43;;;17.80;;
5845;SDS011;2949;50.778;7.094;2023-04-29T12:02:15;36.60;;;20.10;;
5845;SDS011;2949;50.778;7.094;2023-04-29T12:04:44;42.10;;;22.67;;
5845;SDS011;2949;50.778;7.094;2023-04-29T12:07:13;56.80;;;28.60;;
5845;SDS011;2949;50.778;7.094;2023-04-29T12:09:41;57.27;;;31.50;;
5845;SDS011;2949;50.778;7.094;2023-04-29T12:12:07;67.93;;;35.00;;
5845;SDS011;2949;50.778;7.094;2023-04-29T12:14:33;84.70;;;39.50;;
5845;SDS011;2949;50.778;7.094;2023-04-29T12:16:58;68.63;;;36.83;;
5845;SDS011;2949;50.778;7.094;2023-04-29T12:19:24;71.23;;;37.70;;
5845;SDS011;2949;50.778;7.094;2023-04-29T12:21:50;79.70;;;40.07;;
5845;SDS011;2949;50.778;7.094;2023-04-29T12:24:16;84.60;;;43.73;;
5845;SDS011;2949;50.778;7.094;2023-04-29T12:26:41;97.17;;;43.87;;
5845;SDS011;2949;50.778;7.094;2023-04-29T12:29:09;99.70;;;45.87;;
5845;SDS011;2949;50.778;7.094;2023-04-29T12:31:35;95.03;;;47.13;;
5845;SDS011;2949;50.778;7.094;2023-04-29T12:34:02;99.43;;;49.13;;
5845;SDS011;2949;50.778;7.094;2023-04-29T12:36:28;94.97;;;46.70;;
5845;SDS011;2949;50.778;7.094;2023-04-29T12:38:55;108.07;;;49.70;;
5845;SDS011;2949;50.778;7.094;2023-04-29T12:41:35;93.43;;;48.03;;
5845;SDS011;2949;50.778;7.094;2023-04-29T12:44:01;92.23;;;47.30;;
5845;SDS011;2949;50.778;7.094;2023-04-29T12:46:28;98.03;;;49.90;;
5845;SDS011;2949;50.778;7.094;2023-04-29T12:49:00;109.57;;;50.67;;
5845;SDS011;2949;50.778;7.094;2023-04-29T12:51:27;104.20;;;51.30;;
5845;SDS011;2949;50.778;7.094;2023-04-29T12:53:53;105.53;;;52.20;;
5845;SDS011;2949;50.778;7.094;2023-04-29T12:56:18;103.10;;;49.90;;
5845;SDS011;2949;50.778;7.094;2023-04-29T12:58:44;108.73;;;49.10;;
5845;SDS011;2949;50.778;7.094;2023-04-29T13:01:10;92.07;;;46.80;;
5845;SDS011;2949;50.778;7.094;2023-04-29T13:03:36;92.30;;;49.70;;
5845;SDS011;2949;50.778;7.094;2023-04-29T13:06:01;88.07;;;45.20;;
5845;SDS011;2949;50.778;7.094;2023-04-29T13:08:27;94.20;;;45.03;;
5845;SDS011;2949;50.778;7.094;2023-04-29T13:10:53;83.20;;;41.47;;
5845;SDS011;2949;50.778;7.094;2023-04-29T13:13:18;83.27;;;40.47;;
5845;SDS011;2949;50.778;7.094;2023-04-29T13:15:44;72.03;;;39.13;;
5845;SDS011;2949;50.778;7.094;2023-04-29T13:18:09;71.43;;;38.67;;
5845;SDS011;2949;50.778;7.094;2023-04-29T13:20:35;69.13;;;37.33;;
5845;SDS011;2949;50.778;7.094;2023-04-29T13:23:00;74.73;;;40.17;;
5845;SDS011;2949;50.778;7.094;2023-04-29T13:25:26;69.50;;;38.10;;
5845;SDS011;2949;50.778;7.094;2023-04-29T13:27:52;75.00;;;40.60;;
5845;SDS011;2949;50.778;7.094;2023-04-29T13:30:17;74.90;;;38.53;;
5845;SDS011;2949;50.778;7.094;2023-04-29T13:32:43;72.30;;;36.33;;
5845;SDS011;2949;50.778;7.094;2023-04-29T13:35:08;72.30;;;36.43;;
5845;SDS011;2949;50.778;7.094;2023-04-29T13:37:34;78.43;;;37.03;;
5845;SDS011;2949;50.778;7.094;2023-04-29T13:39:59;74.47;;;37.20;;
5845;SDS011;2949;50.778;7.094;2023-04-29T13:42:25;72.70;;;38.47;;
5845;SDS011;2949;50.778;7.094;2023-04-29T13:44:50;70.57;;;36.80;;
5845;SDS011;2949;50.778;7.094;2023-04-29T13:47:17;73.27;;;38.43;;
5845;SDS011;2949;50.778;7.094;2023-04-29T13:49:43;64.43;;;34.27;;
5845;SDS011;2949;50.778;7.094;2023-04-29T13:52:09;58.23;;;32.70;;
5845;SDS011;2949;50.778;7.094;2023-04-29T13:54:35;62.10;;;31.47;;
5845;SDS011;2949;50.778;7.094;2023-04-29T13:57:01;47.93;;;27.70;;
5845;SDS011;2949;50.778;7.094;2023-04-29T13:59:28;52.30;;;27.40;;
5845;SDS011;2949;50.778;7.094;2023-04-29T14:01:54;45.83;;;27.60;;
5845;SDS011;2949;50.778;7.094;2023-04-29T14:04:20;50.93;;;29.30;;
5845;SDS011;2949;50.778;7.094;2023-04-29T14:06:46;52.50;;;28.67;;
5845;SDS011;2949;50.778;7.094;2023-04-29T14:09:11;55.00;;;28.87;;
5845;SDS011;2949;50.778;7.094;2023-04-29T14:11:37;52.70;;;29.23;;
5845;SDS011;2949;50.778;7.094;2023-04-29T14:14:02;56.57;;;28.90;;
5845;SDS011;2949;50.778;7.094;2023-04-29T14:16:28;49.17;;;27.70;;
5845;SDS011;2949;50.778;7.094;2023-04-29T14:18:54;48.43;;;28.20;;
5845;SDS011;2949;50.778;7.094;2023-04-29T14:21:19;54.80;;;31.03;;
5845;SDS011;2949;50.778;7.094;2023-04-29T14:23:46;58.17;;;32.67;;
5845;SDS011;2949;50.778;7.094;2023-04-29T14:26:12;47.83;;;29.53;;
5845;SDS011;2949;50.778;7.094;2023-04-29T14:28:38;52.70;;;30.20;;
5845;SDS011;2949;50.778;7.094;2023-04-29T14:31:03;50.37;;;29.43;;
5845;SDS011;2949;50.778;7.094;2023-04-29T14:33:29;52.47;;;29.00;;
5845;SDS011;2949;50.778;7.094;2023-04-29T14:35:54;45.63;;;26.20;;
5845;SDS011;2949;50.778;7.094;2023-04-29T14:38:20;48.73;;;28.47;;
5845;SDS011;2949;50.778;7.094;2023-04-29T14:40:45;48.27;;;26.60;;
5845;SDS011;2949;50.778;7.094;2023-04-29T14:43:11;41.27;;;26.37;;
5845;SDS011;2949;50.778;7.094;2023-04-29T14:45:37;47.83;;;26.73;;
5845;SDS011;2949;50.778;7.094;2023-04-29T14:48:02;43.57;;;24.50;;
5845;SDS011;2949;50.778;7.094;2023-04-29T14:50:28;41.30;;;23.10;;
5845;SDS011;2949;50.778;7.094;2023-04-29T14:52:54;34.80;;;21.83;;
5845;SDS011;2949;50.778;7.094;2023-04-29T14:55:21;37.20;;;20.67;;
5845;SDS011;2949;50.778;7.094;2023-04-29T14:57:47;40.00;;;21.47;;
5845;SDS011;2949;50.778;7.094;2023-04-29T15:00:13;39.80;;;22.47;;
5845;SDS011;2949;50.778;7.094;2023-04-29T15:02:39;35.53;;;22.13;;
5845;SDS011;2949;50.778;7.094;2023-04-29T15:05:05;33.87;;;20.23;;
5845;SDS011;2949;50.778;7.094;2023-04-29T15:07:31;36.60;;;20.43;;
5845;SDS011;2949;50.778;7.094;2023-04-29T15:09:57;32.87;;;18.63;;
5845;SDS011;2949;50.778;7.094;2023-04-29T15:12:23;38.10;;;20.57;;
5845;SDS011;2949;50.778;7.094;2023-04-29T15:14:48;34.50;;;19.40;;
5845;SDS011;2949;50.778;7.094;2023-04-29T15:17:14;39.40;;;21.93;;
5845;SDS011;2949;50.778;7.094;2023-04-29T15:19:40;36.90;;;21.00;;
5845;SDS011;2949;50.778;7.094;2023-04-29T15:22:05;35.30;;;20.33;;
5845;SDS011;2949;50.778;7.094;2023-04-29T15:24:31;35.60;;;20.80;;
5845;SDS011;2949;50.778;7.094;2023-04-29T15:26:56;38.63;;;21.00;;
5845;SDS011;2949;50.778;7.094;2023-04-29T15:29:22;34.60;;;19.90;;